createdAt,value
2022-08-02T00:01:45.871Z,1.60
2022-08-02T00:04:15.239Z,1.30
2022-08-02T00:06:43.211Z,1.08
2022-08-02T00:09:11.287Z,1.33
2022-08-02T00:11:39.258Z,1.10
2022-08-02T00:14:11.453Z,1.20
2022-08-02T00:16:39.505Z,1.10
2022-08-02T00:19:07.508Z,1.10
2022-08-02T00:21:36.806Z,1.10
2022-08-02T00:24:29.572Z,1.30
2022-08-02T00:26:53.322Z,1.27
2022-08-02T00:29:21.229Z,1.00
2022-08-02T00:31:49.144Z,1.10
2022-08-02T00:34:28.619Z,1.25
2022-08-02T00:37:00.468Z,1.10
2022-08-02T00:39:33.473Z,1.13
2022-08-02T00:42:03.659Z,1.10
2022-08-02T00:44:31.890Z,1.20
2022-08-02T00:46:59.832Z,1.23
2022-08-02T00:49:28.230Z,1.70
2022-08-02T00:51:56.295Z,1.50
2022-08-02T00:54:25.574Z,1.27
2022-08-02T00:56:53.475Z,1.50
2022-08-02T00:59:21.447Z,1.50
2022-08-02T01:01:57.411Z,1.70
2022-08-02T01:04:31.340Z,1.80
2022-08-02T01:07:00.750Z,1.60
2022-08-02T01:09:30.060Z,1.83
2022-08-02T01:11:57.966Z,1.88
2022-08-02T01:14:31.147Z,1.60
2022-08-02T01:17:07.864Z,2.20
2022-08-02T01:19:43.481Z,2.25
2022-08-02T01:23:02.908Z,2.10
2022-08-02T01:25:51.512Z,2.60
2022-08-02T01:28:37.260Z,2.15
2022-08-02T01:31:13.802Z,1.88
2022-08-02T01:33:46.883Z,2.20
2022-08-02T01:36:18.770Z,2.42
2022-08-02T01:38:50.821Z,2.10
2022-08-02T01:41:21.471Z,2.08
2022-08-02T01:43:55.058Z,2.72
2022-08-02T01:46:24.266Z,2.20
2022-08-02T01:48:54.435Z,2.80
2022-08-02T01:51:45.252Z,2.40
2022-08-02T01:54:17.175Z,2.45
2022-08-02T01:56:46.673Z,2.40
2022-08-02T01:59:19.858Z,2.42
2022-08-02T02:01:50.508Z,3.10
2022-08-02T02:04:19.185Z,3.03
2022-08-02T02:06:48.836Z,3.00
2022-08-02T02:09:17.571Z,2.38
2022-08-02T02:12:06.215Z,2.70
2022-08-02T02:17:08.122Z,2.50
2022-08-02T02:19:59.019Z,1.83
2022-08-02T02:22:27.134Z,1.92
2022-08-02T02:24:55.659Z,1.95
2022-08-02T02:27:24.922Z,2.35
2022-08-02T02:29:55.518Z,1.75
2022-08-02T02:32:28.805Z,2.42
2022-08-02T02:34:57.971Z,1.88
2022-08-02T02:37:29.078Z,2.00
2022-08-02T02:39:58.546Z,2.00
2022-08-02T02:42:31.422Z,1.65
2022-08-02T02:45:02.075Z,1.63
2022-08-02T02:47:41.115Z,1.63
2022-08-02T02:50:11.043Z,1.47
2022-08-02T02:52:40.902Z,1.80
2022-08-02T02:55:10.851Z,1.75
2022-08-02T02:57:39.716Z,1.70
2022-08-02T03:00:11.896Z,1.70
2022-08-02T03:02:41.168Z,1.52
2022-08-02T03:05:11.234Z,1.13
2022-08-02T03:07:39.972Z,1.42
2022-08-02T03:10:09.444Z,1.45
2022-08-02T03:12:37.875Z,0.80
2022-08-02T03:15:08.456Z,1.17
2022-08-02T03:17:42.503Z,0.85
2022-08-02T03:20:13.449Z,0.85
2022-08-02T03:22:41.714Z,0.95
2022-08-02T03:25:11.019Z,0.80
2022-08-02T03:27:39.017Z,0.80
2022-08-02T03:30:09.127Z,0.95
2022-08-02T03:32:38.083Z,0.70
2022-08-02T03:35:10.531Z,0.90
2022-08-02T03:37:39.088Z,0.93
2022-08-02T03:40:09.931Z,0.88
2022-08-02T03:42:38.644Z,0.90
2022-08-02T03:45:10.196Z,0.70
2022-08-02T03:47:40.632Z,0.90
2022-08-02T03:52:43.573Z,0.70
2022-08-02T03:55:12.648Z,0.82
2022-08-02T03:57:41.525Z,0.90
2022-08-02T04:00:11.344Z,0.68
2022-08-02T04:02:39.275Z,0.68
2022-08-02T04:05:07.735Z,0.82
2022-08-02T04:08:32.823Z,0.73
2022-08-02T04:10:25.016Z,0.82
2022-08-02T04:12:53.352Z,0.90
2022-08-02T04:15:21.891Z,0.80
2022-08-02T04:17:54.171Z,0.90
2022-08-02T04:20:26.160Z,0.50
2022-08-02T04:23:01.585Z,0.70
2022-08-02T04:25:35.452Z,0.85
2022-08-02T04:28:17.614Z,0.88
2022-08-02T04:30:47.496Z,0.85
2022-08-02T04:33:16.171Z,0.85
2022-08-02T04:35:44.871Z,0.82
2022-08-02T04:38:16.472Z,0.82
2022-08-02T04:40:52.352Z,0.73
2022-08-02T04:43:20.928Z,0.93
2022-08-02T04:45:50.750Z,1.00
2022-08-02T04:48:18.735Z,0.80
2022-08-02T04:50:46.812Z,0.98
2022-08-02T04:53:16.287Z,1.35
2022-08-02T04:55:44.394Z,1.33
2022-08-02T04:58:38.255Z,0.80
2022-08-02T05:01:00.325Z,0.90
2022-08-02T05:03:28.246Z,1.10
2022-08-02T05:05:56.147Z,0.98
2022-08-02T05:08:25.445Z,1.75
2022-08-02T05:10:53.396Z,0.93
2022-08-02T05:13:21.380Z,1.00
2022-08-02T05:15:50.565Z,0.80
2022-08-02T05:18:18.852Z,1.15
2022-08-02T05:20:46.840Z,1.10
2022-08-02T05:23:14.790Z,0.88
2022-08-02T05:25:44.112Z,0.90
2022-08-02T05:28:12.086Z,0.70
2022-08-02T05:30:40.198Z,1.00
2022-08-02T05:33:08.552Z,0.80
2022-08-02T05:35:37.064Z,0.70
2022-08-02T05:38:05.160Z,1.05
2022-08-02T05:40:54.200Z,0.98
2022-08-02T05:43:24.402Z,0.88
2022-08-02T05:45:54.568Z,1.00
2022-08-02T05:48:26.393Z,0.70
2022-08-02T05:51:04.625Z,1.13
2022-08-02T05:53:40.023Z,0.88
2022-08-02T05:56:19.053Z,1.20
2022-08-02T05:58:54.199Z,0.85
2022-08-02T06:01:29.093Z,0.70
2022-08-02T06:04:00.196Z,0.80
2022-08-02T06:06:28.204Z,0.73
2022-08-02T06:09:01.215Z,1.00
2022-08-02T06:11:36.839Z,1.00
2022-08-02T06:14:07.838Z,0.77
2022-08-02T06:16:37.605Z,0.73
2022-08-02T06:19:12.582Z,0.80
2022-08-02T06:22:37.689Z,0.60
2022-08-02T06:24:31.868Z,0.80
2022-08-02T06:27:01.707Z,0.80
2022-08-02T06:29:37.001Z,1.15
2022-08-02T06:32:09.165Z,0.73
2022-08-02T06:37:13.647Z,0.70
2022-08-02T06:39:48.712Z,0.82
2022-08-02T06:42:24.130Z,0.70
2022-08-02T06:44:58.120Z,0.65
2022-08-02T06:47:26.732Z,0.47
2022-08-02T06:49:55.136Z,0.60
2022-08-02T06:52:29.412Z,0.57
2022-08-02T06:54:59.592Z,0.60
2022-08-02T06:57:28.032Z,0.60
2022-08-02T06:59:58.457Z,0.70
2022-08-02T07:02:26.652Z,0.80
2022-08-02T07:04:55.663Z,0.65
2022-08-02T07:07:23.695Z,0.70
2022-08-02T07:09:56.239Z,0.60
2022-08-02T07:12:29.501Z,0.70
2022-08-02T07:14:59.232Z,0.60
2022-08-02T07:17:27.344Z,0.60
2022-08-02T07:19:55.251Z,0.65
2022-08-02T07:22:24.636Z,0.63
2022-08-02T07:24:53.006Z,0.70
2022-08-02T07:27:21.772Z,0.82
2022-08-02T07:29:49.845Z,0.90
2022-08-02T07:32:20.003Z,0.98
2022-08-02T07:34:50.587Z,0.50
2022-08-02T07:37:35.015Z,0.52
2022-08-02T07:40:14.166Z,0.82
2022-08-02T07:42:43.243Z,0.70
2022-08-02T07:45:12.624Z,0.60
2022-08-02T07:47:43.122Z,0.60
2022-08-02T07:52:40.870Z,0.70
2022-08-02T07:55:09.698Z,0.50
2022-08-02T07:57:42.481Z,0.50
2022-08-02T08:00:16.239Z,0.50
2022-08-02T08:02:46.343Z,0.55
2022-08-02T08:05:15.281Z,0.85
2022-08-02T08:07:43.260Z,0.90
2022-08-02T08:10:11.896Z,0.57
2022-08-02T08:12:39.811Z,0.60
2022-08-02T08:15:08.409Z,0.40
2022-08-02T08:17:36.348Z,0.60
2022-08-02T08:20:07.042Z,0.50
2022-08-02T08:22:35.189Z,0.50
2022-08-02T08:25:03.227Z,0.50
2022-08-02T08:27:32.289Z,0.63
2022-08-02T08:30:00.389Z,0.50
2022-08-02T08:32:28.270Z,0.60
2022-08-02T08:34:56.220Z,0.40
2022-08-02T08:37:25.593Z,0.35
2022-08-02T08:39:58.286Z,0.30
2022-08-02T08:42:28.108Z,0.40
2022-08-02T08:44:57.795Z,0.40
2022-08-02T08:50:05.104Z,0.60
2022-08-02T08:52:37.933Z,0.60
2022-08-02T08:55:09.167Z,0.50
2022-08-02T08:57:41.699Z,0.52
2022-08-02T09:00:10.865Z,0.40
2022-08-02T09:02:38.790Z,0.60
2022-08-02T09:05:08.354Z,0.50
2022-08-02T09:07:37.679Z,0.70
2022-08-02T09:10:33.246Z,0.50
2022-08-02T09:13:37.859Z,0.45
2022-08-02T09:16:13.009Z,0.30
2022-08-02T09:18:44.762Z,0.30
2022-08-02T09:21:13.682Z,0.55
2022-08-02T09:23:45.685Z,0.20
2022-08-02T09:26:15.502Z,0.40
2022-08-02T09:28:47.419Z,0.30
2022-08-02T09:31:18.158Z,0.40
2022-08-02T09:33:51.916Z,0.40
2022-08-02T09:36:19.975Z,0.40
2022-08-02T09:38:57.431Z,0.45
2022-08-02T09:41:28.392Z,0.32
2022-08-02T09:44:05.087Z,0.30
2022-08-02T09:46:37.680Z,0.40
2022-08-02T09:49:09.342Z,0.30
2022-08-02T09:51:39.320Z,0.38
2022-08-02T09:54:12.022Z,0.25
2022-08-02T09:56:47.708Z,0.20
2022-08-02T09:59:16.983Z,0.32
2022-08-02T10:01:51.059Z,0.22
2022-08-02T10:04:30.466Z,0.47
2022-08-02T10:06:59.675Z,0.30
2022-08-02T10:09:29.850Z,0.30
2022-08-02T10:11:58.782Z,0.30
2022-08-02T10:14:27.754Z,0.40
2022-08-02T10:16:57.814Z,0.30
2022-08-02T10:20:02.213Z,0.40
2022-08-02T10:22:19.760Z,0.40
2022-08-02T10:24:50.473Z,0.20
2022-08-02T10:27:21.053Z,0.30
2022-08-02T10:29:54.236Z,0.40
2022-08-02T10:32:27.998Z,0.43
2022-08-02T10:35:18.808Z,0.30
2022-08-02T10:37:51.845Z,0.47
2022-08-02T10:40:24.455Z,0.43
2022-08-02T10:42:55.064Z,0.25
2022-08-02T10:45:24.164Z,0.40
2022-08-02T10:48:03.588Z,0.40
2022-08-02T10:50:53.707Z,0.50
2022-08-02T10:53:26.910Z,0.50
2022-08-02T10:55:58.080Z,0.50
2022-08-02T10:58:30.296Z,0.30
2022-08-02T11:00:59.529Z,0.40
2022-08-02T11:03:42.249Z,0.28
2022-08-02T11:06:25.691Z,0.40
2022-08-02T11:09:32.007Z,0.40
2022-08-02T11:12:04.730Z,0.82
2022-08-02T11:14:35.147Z,0.30
2022-08-02T11:17:15.175Z,0.45
2022-08-02T11:20:18.037Z,0.30
2022-08-02T11:22:48.139Z,0.40
2022-08-02T11:26:00.887Z,0.30
2022-08-02T11:28:25.051Z,0.30
2022-08-02T11:31:03.081Z,0.30
2022-08-02T11:33:36.096Z,0.32
2022-08-02T11:36:07.559Z,0.55
2022-08-02T11:38:35.771Z,0.40
2022-08-02T11:41:09.588Z,0.38
2022-08-02T11:43:39.919Z,0.30
2022-08-02T11:46:15.154Z,0.20
2022-08-02T11:48:45.142Z,0.30
2022-08-02T11:51:14.611Z,0.30
2022-08-02T11:53:47.351Z,0.50
2022-08-02T11:56:21.888Z,0.45
2022-08-02T11:59:05.871Z,0.43
2022-08-02T12:04:13.440Z,0.28
2022-08-02T12:06:41.456Z,0.30
2022-08-02T12:09:17.970Z,0.25
2022-08-02T12:11:50.443Z,0.40
2022-08-02T12:14:19.915Z,0.30
2022-08-02T12:17:06.266Z,0.17
2022-08-02T12:19:34.543Z,0.40
2022-08-02T12:22:11.076Z,0.40
2022-08-02T12:24:40.348Z,0.28
2022-08-02T12:27:09.022Z,0.30
2022-08-02T12:29:57.916Z,0.57
2022-08-02T12:32:27.463Z,0.30
2022-08-02T12:35:08.040Z,0.30
2022-08-02T12:40:26.099Z,0.50
2022-08-02T12:42:57.397Z,0.32
2022-08-02T12:45:38.351Z,0.30
2022-08-02T12:48:09.570Z,0.30
2022-08-02T12:50:38.500Z,0.32
2022-08-02T12:53:08.592Z,0.28
2022-08-02T12:56:01.999Z,0.20
2022-08-02T12:58:28.929Z,0.30
2022-08-02T13:01:00.688Z,0.35
2022-08-02T13:04:10.269Z,0.30
2022-08-02T13:06:41.320Z,0.35
2022-08-02T13:09:13.795Z,0.30
2022-08-02T13:11:43.436Z,0.50
2022-08-02T13:14:12.140Z,0.40
2022-08-02T13:16:42.439Z,0.40
2022-08-02T13:19:10.607Z,0.50
2022-08-02T13:21:41.468Z,0.30
2022-08-02T13:24:38.842Z,0.45
2022-08-02T13:27:14.369Z,0.40
2022-08-02T13:29:42.234Z,0.40
2022-08-02T13:32:11.966Z,0.30
2022-08-02T13:34:40.402Z,0.43
2022-08-02T13:37:08.340Z,0.35
2022-08-02T13:39:36.217Z,0.30
2022-08-02T13:42:04.247Z,0.45
2022-08-02T13:44:34.040Z,0.63
2022-08-02T13:47:02.549Z,0.35
2022-08-02T13:49:51.290Z,0.40
2022-08-02T13:52:19.885Z,0.40
2022-08-02T13:54:47.827Z,0.50
2022-08-02T13:57:15.782Z,0.55
2022-08-02T13:59:55.828Z,0.57
2022-08-02T14:02:26.152Z,0.40
2022-08-02T14:04:55.567Z,0.30
2022-08-02T14:07:23.480Z,0.47
2022-08-02T14:09:51.500Z,0.40
2022-08-02T14:12:20.386Z,0.50
2022-08-02T14:14:48.306Z,0.38
2022-08-02T14:17:18.819Z,0.30
2022-08-02T14:19:47.039Z,0.45
2022-08-02T14:22:16.482Z,0.35
2022-08-02T14:24:45.037Z,0.50
2022-08-02T14:27:13.554Z,0.40
2022-08-02T14:29:41.571Z,0.40
2022-08-02T14:32:10.210Z,0.50
2022-08-02T14:34:38.363Z,0.30
2022-08-02T14:37:06.291Z,0.30
2022-08-02T14:39:42.951Z,0.40
2022-08-02T14:42:23.708Z,0.60
2022-08-02T14:44:51.640Z,0.50
2022-08-02T14:47:19.684Z,0.57
2022-08-02T14:49:50.258Z,0.40
2022-08-02T14:52:18.944Z,0.35
2022-08-02T14:54:48.460Z,0.50
2022-08-02T14:57:16.727Z,0.40
2022-08-02T14:59:44.716Z,0.40
2022-08-02T15:02:13.595Z,1.30
2022-08-02T15:04:43.149Z,0.40
2022-08-02T15:07:11.515Z,0.80
2022-08-02T15:09:40.053Z,0.60
2022-08-02T15:12:10.847Z,0.80
2022-08-02T15:14:39.245Z,0.80
2022-08-02T15:17:07.977Z,0.50
2022-08-02T15:19:58.188Z,0.55
2022-08-02T15:22:23.837Z,0.52
2022-08-02T15:24:52.063Z,0.55
2022-08-02T15:27:21.434Z,0.73
2022-08-02T15:29:49.567Z,0.68
2022-08-02T15:32:19.795Z,0.40
2022-08-02T15:34:47.859Z,0.80
2022-08-02T15:37:16.080Z,0.50
2022-08-02T15:39:44.176Z,0.43
2022-08-02T15:42:12.508Z,0.57
2022-08-02T15:44:42.155Z,0.60
2022-08-02T15:47:10.090Z,0.50
2022-08-02T15:49:41.390Z,0.50
2022-08-02T15:52:11.047Z,0.70
2022-08-02T15:54:39.431Z,0.50
2022-08-02T15:57:07.756Z,0.57
2022-08-02T15:59:35.737Z,0.60
2022-08-02T16:02:06.818Z,0.60
2022-08-02T16:04:34.912Z,0.57
2022-08-02T16:07:02.971Z,0.82
2022-08-02T16:09:30.898Z,0.68
2022-08-02T16:11:58.970Z,0.73
2022-08-02T16:14:26.977Z,0.68
2022-08-02T16:16:56.177Z,0.95
2022-08-02T16:19:38.790Z,0.75
2022-08-02T16:22:13.607Z,0.70
2022-08-02T16:24:41.820Z,0.80
2022-08-02T16:27:09.708Z,0.70
2022-08-02T16:29:37.748Z,0.70
2022-08-02T16:32:06.467Z,0.80
2022-08-02T16:35:04.068Z,0.80
2022-08-02T16:37:24.187Z,0.70
2022-08-02T16:39:52.265Z,0.60
2022-08-02T16:42:25.359Z,0.60
2022-08-02T16:44:54.895Z,0.65
2022-08-02T16:47:37.101Z,0.80
2022-08-02T16:50:12.910Z,0.93
2022-08-02T16:52:40.926Z,0.53
2022-08-02T16:55:11.125Z,0.60
2022-08-02T16:57:43.344Z,0.50
2022-08-02T17:00:15.650Z,0.70
2022-08-02T17:02:44.419Z,0.40
2022-08-02T17:05:16.597Z,0.55
2022-08-02T17:08:07.317Z,0.88
2022-08-02T17:10:34.271Z,0.70
2022-08-02T17:13:11.176Z,0.82
2022-08-02T17:16:16.133Z,0.90
2022-08-02T17:18:29.384Z,0.80
2022-08-02T17:20:59.054Z,0.85
2022-08-02T17:24:05.624Z,0.80
2022-08-02T17:26:15.325Z,0.82
2022-08-02T17:29:14.241Z,0.60
2022-08-02T17:31:42.090Z,0.60
2022-08-02T17:34:11.667Z,1.02
2022-08-02T17:36:41.147Z,0.75
2022-08-02T17:39:09.359Z,0.57
2022-08-02T17:41:49.023Z,0.70
2022-08-02T17:44:37.620Z,0.70
2022-08-02T17:47:06.588Z,0.80
2022-08-02T17:49:37.199Z,0.70
2022-08-02T17:52:48.040Z,0.70
2022-08-02T17:55:03.293Z,0.75
2022-08-02T17:57:57.903Z,0.70
2022-08-02T18:00:20.101Z,0.63
2022-08-02T18:02:54.899Z,0.60
2022-08-02T18:05:38.968Z,0.70
2022-08-02T18:08:10.119Z,0.70
2022-08-02T18:10:39.319Z,0.80
2022-08-02T18:13:07.260Z,0.95
2022-08-02T18:15:35.883Z,0.88
2022-08-02T18:18:03.972Z,0.82
2022-08-02T18:20:32.028Z,0.93
2022-08-02T18:23:00.326Z,0.93
2022-08-02T18:25:37.847Z,1.00
2022-08-02T18:28:15.130Z,2.85
2022-08-02T18:30:43.446Z,0.80
2022-08-02T18:33:56.892Z,0.93
2022-08-02T18:35:59.473Z,0.90
2022-08-02T18:38:30.250Z,1.10
2022-08-02T18:41:02.754Z,0.85
2022-08-02T18:43:34.588Z,0.95
2022-08-02T18:46:15.753Z,1.02
2022-08-02T18:48:46.498Z,1.00
2022-08-02T18:51:15.498Z,0.60
2022-08-02T18:53:43.947Z,0.93
2022-08-02T18:56:20.262Z,0.98
2022-08-02T18:58:53.199Z,0.75
2022-08-02T19:01:32.056Z,1.23
2022-08-02T19:04:02.538Z,0.98
2022-08-02T19:06:30.903Z,0.90
2022-08-02T19:09:03.551Z,1.05
2022-08-02T19:11:41.369Z,0.82
2022-08-02T19:14:24.187Z,0.70
2022-08-02T19:16:56.736Z,0.90
2022-08-02T19:19:29.151Z,1.00
2022-08-02T19:22:17.617Z,0.95
2022-08-02T19:24:47.177Z,0.70
2022-08-02T19:27:25.642Z,1.15
2022-08-02T19:29:54.887Z,0.90
2022-08-02T19:32:42.298Z,0.88
2022-08-02T19:35:19.526Z,0.90
2022-08-02T19:37:59.603Z,1.10
2022-08-02T19:40:29.098Z,0.98
2022-08-02T19:44:20.695Z,1.10
2022-08-02T19:45:50.567Z,0.90
2022-08-02T19:48:35.424Z,0.73
2022-08-02T19:51:07.627Z,0.80
2022-08-02T19:56:25.580Z,0.80
2022-08-02T19:58:57.939Z,0.70
2022-08-02T20:01:36.920Z,0.95
2022-08-02T20:04:13.393Z,0.90
2022-08-02T20:06:45.313Z,0.82
2022-08-02T20:09:16.432Z,0.95
2022-08-02T20:11:45.171Z,0.70
2022-08-02T20:14:14.518Z,0.80
2022-08-02T20:16:42.595Z,0.90
2022-08-02T20:19:14.120Z,1.02
2022-08-02T20:21:46.517Z,0.90
2022-08-02T20:24:21.140Z,0.70
2022-08-02T20:26:54.563Z,0.80
2022-08-02T20:29:42.912Z,0.73
2022-08-02T20:32:12.089Z,0.70
2022-08-02T20:34:40.056Z,0.82
2022-08-02T20:37:59.688Z,0.93
2022-08-02T20:39:55.951Z,0.80
2022-08-02T20:42:24.690Z,0.95
2022-08-02T20:44:55.119Z,0.90
2022-08-02T20:47:27.742Z,0.68
2022-08-02T20:50:30.704Z,0.80
2022-08-02T20:53:00.497Z,0.90
2022-08-02T20:55:31.280Z,1.00
2022-08-02T20:58:01.766Z,0.77
2022-08-02T21:00:32.507Z,0.85
2022-08-02T21:03:02.963Z,1.15
2022-08-02T21:05:54.673Z,0.93
2022-08-02T21:08:25.476Z,0.98
2022-08-02T21:10:55.505Z,1.15
2022-08-02T21:13:26.110Z,0.98
2022-08-02T21:16:00.796Z,1.23
2022-08-02T21:18:40.549Z,0.95
2022-08-02T21:21:09.746Z,1.02
2022-08-02T21:23:38.478Z,0.95
2022-08-02T21:26:25.714Z,1.05
2022-08-02T21:28:56.718Z,0.98
2022-08-02T21:31:29.721Z,1.13
2022-08-02T21:33:59.383Z,1.15
2022-08-02T21:36:30.588Z,1.20
2022-08-02T21:38:59.562Z,1.20
2022-08-02T21:41:38.473Z,1.13
2022-08-02T21:46:38.039Z,1.10
2022-08-02T21:49:06.660Z,1.00
2022-08-02T21:51:34.644Z,1.17
2022-08-02T21:54:17.610Z,1.20
2022-08-02T21:56:48.227Z,1.17
2022-08-02T21:59:16.965Z,1.50
2022-08-02T22:01:52.304Z,1.15
2022-08-02T22:04:21.858Z,1.20
2022-08-02T22:06:49.799Z,1.50
2022-08-02T22:09:43.024Z,1.00
2022-08-02T22:12:09.809Z,1.10
2022-08-02T22:14:39.581Z,1.15
2022-08-02T22:17:13.728Z,1.27
2022-08-02T22:19:53.935Z,1.08
2022-08-02T22:22:28.126Z,1.05
2022-08-02T22:24:57.064Z,1.10
2022-08-02T22:28:36.627Z,1.58
2022-08-02T22:30:13.592Z,1.13
2022-08-02T22:33:01.191Z,1.17
2022-08-02T22:35:29.279Z,0.93
2022-08-02T22:38:15.039Z,1.35
2022-08-02T22:40:45.738Z,0.90
2022-08-02T22:43:22.661Z,0.85
2022-08-02T22:45:51.379Z,1.02
2022-08-02T22:48:20.908Z,0.68
2022-08-02T22:50:52.788Z,1.17
2022-08-02T22:53:35.340Z,0.70
2022-08-02T22:56:03.742Z,0.88
2022-08-02T22:58:32.694Z,1.00
2022-08-02T22:58:53.719Z,0.93
2022-08-02T23:01:01.114Z,1.20
2022-08-02T23:03:30.582Z,0.77
2022-08-02T23:05:58.682Z,0.70
2022-08-02T23:08:26.626Z,0.85
2022-08-02T23:10:54.563Z,0.60
2022-08-02T23:13:26.609Z,0.60
2022-08-02T23:16:13.743Z,0.70
2022-08-02T23:19:00.848Z,0.80
2022-08-02T23:21:45.740Z,0.77
2022-08-02T23:24:22.596Z,0.90
2022-08-02T23:26:50.612Z,0.60
2022-08-02T23:29:18.515Z,0.80
2022-08-02T23:31:46.418Z,0.70
2022-08-02T23:34:15.857Z,1.00
2022-08-02T23:36:43.796Z,0.70
2022-08-02T23:39:11.691Z,0.93
2022-08-02T23:41:39.692Z,0.90
2022-08-02T23:44:15.437Z,0.60
2022-08-02T23:46:44.540Z,0.70
2022-08-02T23:49:13.059Z,0.80
2022-08-02T23:51:42.430Z,0.70
2022-08-02T23:54:10.610Z,0.70
2022-08-02T23:56:39.225Z,0.70
2022-08-02T23:59:07.746Z,0.95
